createdAt,value
2018-11-20T00:00:07.083Z,77.4
2018-11-20T00:05:06.617Z,75.9
2018-11-20T00:10:06.791Z,74
2018-11-20T00:15:07.115Z,73.1
2018-11-20T00:20:06.828Z,72.2
2018-11-20T00:25:06.903Z,72.1
2018-11-20T00:30:07.149Z,69.9
2018-11-20T00:35:06.756Z,69
2018-11-20T00:40:06.890Z,69.1
2018-11-20T00:45:06.788Z,68.2
2018-11-20T00:50:06.984Z,67.3
2018-11-20T00:55:06.737Z,66.2
2018-11-20T01:00:06.641Z,65.4
2018-11-20T01:05:06.856Z,65.4
2018-11-20T01:10:06.589Z,65.4
2018-11-20T01:15:06.599Z,65.1
2018-11-20T01:20:06.555Z,64.4
2018-11-20T01:25:06.733Z,64.3
2018-11-20T01:30:06.974Z,64.4
2018-11-20T01:35:06.695Z,64.8
2018-11-20T01:40:06.793Z,65.5
2018-11-20T01:45:06.611Z,66.4
2018-11-20T01:50:06.492Z,67
2018-11-20T01:55:06.585Z,66.5
2018-11-20T02:00:06.544Z,67.1
2018-11-20T02:05:06.781Z,67.9
2018-11-20T02:10:06.611Z,68.4
2018-11-20T02:15:06.537Z,68.3
2018-11-20T02:20:06.434Z,68.5
2018-11-20T02:25:06.820Z,69
2018-11-20T02:30:06.687Z,69
2018-11-20T02:35:06.643Z,69
2018-11-20T02:40:06.607Z,69.1
2018-11-20T02:45:06.629Z,68.9
2018-11-20T02:50:06.581Z,68.9
2018-11-20T02:55:06.639Z,68.7
2018-11-20T03:00:06.408Z,68.6
2018-11-20T03:05:06.749Z,68.9
2018-11-20T03:10:06.425Z,69.3
2018-11-20T03:15:06.604Z,69.7
2018-11-20T03:20:06.638Z,69.7
2018-11-20T03:25:06.629Z,69.9
2018-11-20T03:30:06.360Z,69.8
2018-11-20T03:35:06.322Z,69.6
2018-11-20T03:40:07.061Z,69.5
2018-11-20T03:45:06.452Z,69.4
2018-11-20T03:50:06.511Z,69
2018-11-20T03:55:06.282Z,68.8
2018-11-20T04:00:06.462Z,69.2
2018-11-20T04:05:06.630Z,69
2018-11-20T04:10:06.764Z,68.7
2018-11-20T04:15:06.468Z,69
2018-11-20T04:20:06.437Z,68.6
2018-11-20T04:25:06.200Z,68.3
2018-11-20T04:30:06.610Z,68.5
2018-11-20T04:35:06.534Z,68.1
2018-11-20T04:40:06.388Z,67.9
2018-11-20T04:45:06.332Z,68
2018-11-20T04:50:06.229Z,67.7
2018-11-20T04:55:06.176Z,67.7
2018-11-20T05:00:06.488Z,67.4
2018-11-20T05:05:06.524Z,67.2
2018-11-20T05:10:06.205Z,67.3
2018-11-20T05:15:06.243Z,67
2018-11-20T05:20:06.777Z,67.3
2018-11-20T05:25:06.273Z,67.1
2018-11-20T05:30:06.479Z,66.2
2018-11-20T05:35:06.448Z,66
2018-11-20T05:40:06.157Z,65.9
2018-11-20T05:45:06.562Z,65.8
2018-11-20T05:50:06.449Z,65.9
2018-11-20T05:55:06.166Z,66.2
2018-11-20T06:00:06.317Z,66.3
2018-11-20T06:05:06.215Z,66.6
2018-11-20T06:10:06.091Z,66.7
2018-11-20T06:15:06.353Z,67
2018-11-20T06:20:06.440Z,67
2018-11-20T06:25:06.669Z,67.8
2018-11-20T06:30:06.146Z,67.6
2018-11-20T06:35:06.336Z,67.9
2018-11-20T06:40:06.072Z,68.5
2018-11-20T06:45:06.013Z,68.8
2018-11-20T06:50:06.217Z,69.2
2018-11-20T06:55:06.277Z,68.9
2018-11-20T07:00:06.323Z,69.1
2018-11-20T07:05:06.014Z,69.5
2018-11-20T07:10:06.735Z,69.5
2018-11-20T07:15:06.030Z,70
2018-11-20T07:20:06.158Z,69.9
2018-11-20T07:25:06.064Z,70.1
2018-11-20T07:30:06.366Z,70.5
2018-11-20T07:35:06.050Z,70.6
2018-11-20T07:40:06.081Z,70.8
2018-11-20T07:45:06.357Z,70.8
2018-11-20T07:50:06.294Z,70.8
2018-11-20T07:55:06.136Z,70.9
2018-11-20T08:00:06.123Z,71.2
2018-11-20T08:05:05.893Z,71.1
2018-11-20T08:10:06.186Z,71.2
2018-11-20T08:15:06.183Z,71.7
2018-11-20T08:20:06.021Z,72.8
2018-11-20T08:25:06.197Z,73.5
2018-11-20T08:30:06.070Z,73.6
2018-11-20T08:35:06.240Z,74.1
2018-11-20T08:40:06.171Z,74.1
2018-11-20T08:45:05.803Z,74.4
2018-11-20T08:50:06.156Z,73.6
2018-11-20T08:55:06.004Z,74.9
2018-11-20T09:00:05.855Z,74.5
2018-11-20T09:05:05.909Z,75.1
2018-11-20T09:10:06.065Z,75.1
2018-11-20T09:15:06.081Z,74.8
2018-11-20T09:20:05.749Z,75.8
2018-11-20T09:25:05.780Z,75.2
2018-11-20T09:30:05.849Z,75.1
2018-11-20T09:35:06.316Z,75.1
2018-11-20T09:40:05.866Z,74.7
2018-11-20T09:45:05.829Z,74
2018-11-20T09:50:05.998Z,73.7
2018-11-20T09:55:06.069Z,73.2
2018-11-20T10:00:05.814Z,72.7
2018-11-20T10:05:06.012Z,72.4
2018-11-20T10:10:05.987Z,72.1
2018-11-20T10:15:05.736Z,72.2
2018-11-20T10:20:05.945Z,72.5
2018-11-20T10:25:06.043Z,72.2
2018-11-20T10:30:06.005Z,72.6
2018-11-20T10:35:05.845Z,72.3
2018-11-20T10:40:05.849Z,71.9
2018-11-20T10:45:05.928Z,71.5
2018-11-20T10:50:06.075Z,71.6
2018-11-20T10:55:05.760Z,70.8
2018-11-20T11:00:05.773Z,70.5
2018-11-20T11:05:05.778Z,70.7
2018-11-20T11:10:05.885Z,70
2018-11-20T11:15:05.826Z,69.6
2018-11-20T11:20:05.872Z,69.6
2018-11-20T11:25:05.932Z,69.8
2018-11-20T11:30:05.727Z,70.5
2018-11-20T11:35:05.751Z,71.3
2018-11-20T11:40:05.927Z,71.4
2018-11-20T11:45:05.740Z,71.5
2018-11-20T11:50:05.724Z,71.7
2018-11-20T11:55:05.775Z,71.5
2018-11-20T12:00:05.638Z,71.6
2018-11-20T12:05:05.511Z,71.5
2018-11-20T12:10:05.516Z,71.4
2018-11-20T12:15:05.773Z,71.2
2018-11-20T12:20:05.488Z,71.5
2018-11-20T12:25:05.816Z,71.7
2018-11-20T12:30:05.474Z,71.4
2018-11-20T12:35:05.820Z,71.4
2018-11-20T12:40:05.670Z,71.4
2018-11-20T12:45:05.502Z,70.8
2018-11-20T12:50:05.874Z,71.3
2018-11-20T12:55:05.709Z,70.6
2018-11-20T13:00:05.452Z,70.4
2018-11-20T13:05:05.427Z,70.8
2018-11-20T13:10:05.653Z,70.8
2018-11-20T13:15:05.508Z,71
2018-11-20T13:20:05.971Z,70.9
2018-11-20T13:25:05.520Z,70.8
2018-11-20T13:30:05.559Z,70.5
2018-11-20T13:35:05.537Z,70.2
2018-11-20T13:40:05.547Z,70.3
2018-11-20T13:45:05.456Z,70.3
2018-11-20T13:50:05.568Z,70.5
2018-11-20T13:55:05.331Z,70.3
2018-11-20T14:00:05.442Z,70.7
2018-11-20T14:05:05.406Z,70.8
2018-11-20T14:10:05.567Z,70.4
2018-11-20T14:15:05.470Z,70.7
2018-11-20T14:20:05.328Z,70.7
2018-11-20T14:25:05.377Z,70.8
2018-11-20T14:30:05.418Z,71.1
2018-11-20T14:35:05.581Z,71.1
2018-11-20T14:40:05.614Z,71.6
2018-11-20T14:45:06.120Z,71.6
2018-11-20T14:50:05.455Z,72
2018-11-20T14:55:05.558Z,72.2
2018-11-20T15:00:05.559Z,71.9
2018-11-20T15:05:05.513Z,72.3
2018-11-20T15:10:05.255Z,72.4
2018-11-20T15:15:05.361Z,72.3
2018-11-20T15:20:05.291Z,72
2018-11-20T15:25:05.439Z,72.4
2018-11-20T15:30:05.532Z,72.8
2018-11-20T15:35:05.367Z,72.7
2018-11-20T15:40:05.451Z,72.2
2018-11-20T15:45:05.224Z,72.2
2018-11-20T15:50:05.395Z,72.2
2018-11-20T15:55:05.393Z,72.3
2018-11-20T16:00:05.183Z,72.5
2018-11-20T16:05:05.565Z,72
2018-11-20T16:10:05.432Z,72.2
2018-11-20T16:15:05.367Z,72
2018-11-20T16:20:05.440Z,72
2018-11-20T16:25:05.462Z,72.4
2018-11-20T16:30:05.313Z,72.2
2018-11-20T16:35:05.288Z,72.5
2018-11-20T16:40:05.256Z,72.1
2018-11-20T16:45:05.464Z,71.9
2018-11-20T16:50:05.467Z,71.7
2018-11-20T16:55:05.085Z,71.7
2018-11-20T17:00:05.157Z,71.4
2018-11-20T17:05:05.454Z,71.4
2018-11-20T17:10:05.079Z,71.2
2018-11-20T17:15:05.344Z,70.9
2018-11-20T17:20:05.243Z,70.5
2018-11-20T17:25:05.279Z,70.7
2018-11-20T17:30:05.430Z,70.8
2018-11-20T17:35:05.299Z,70.6
2018-11-20T17:40:05.344Z,70.6
2018-11-20T17:45:05.140Z,70.4
2018-11-20T17:50:05.319Z,71
2018-11-20T17:55:05.374Z,71.6
2018-11-20T18:00:05.367Z,71.5
2018-11-20T18:05:05.252Z,71.2
2018-11-20T18:10:05.259Z,71.6
2018-11-20T18:15:05.279Z,72.5
2018-11-20T18:20:05.221Z,73.3
2018-11-20T18:25:05.268Z,73.6
2018-11-20T18:30:04.981Z,74.3
2018-11-20T18:35:05.321Z,74.8
2018-11-20T18:40:05.218Z,75
2018-11-20T18:45:06.420Z,75.8
2018-11-20T18:50:05.160Z,76.5
2018-11-20T18:55:05.314Z,77
2018-11-20T19:00:05.273Z,77.9
2018-11-20T19:05:05.214Z,78.8
2018-11-20T19:10:04.897Z,78.3
2018-11-20T19:15:05.193Z,79.2
2018-11-20T19:20:05.211Z,78.6
2018-11-20T19:25:04.908Z,79.3
2018-11-20T19:30:05.167Z,79.8
2018-11-20T19:35:05.174Z,80
2018-11-20T19:40:05.036Z,80
2018-11-20T19:45:05.172Z,79.7
2018-11-20T19:50:05.208Z,80.8
2018-11-20T19:55:05.133Z,80.8
2018-11-20T20:00:04.879Z,80.2
2018-11-20T20:05:05.267Z,79.6
2018-11-20T20:10:11.975Z,80.2
2018-11-20T20:15:05.194Z,81
2018-11-20T20:20:04.855Z,81.2
2018-11-20T20:25:05.199Z,81.4
2018-11-20T20:30:05.157Z,80.9
2018-11-20T20:35:04.991Z,81
2018-11-20T20:40:04.847Z,81
2018-11-20T20:45:05.105Z,81.6
2018-11-20T20:50:05.153Z,81.3
2018-11-20T20:55:05.083Z,81.5
2018-11-20T21:00:05.121Z,81.4
2018-11-20T21:05:05.076Z,81.4
2018-11-20T21:10:05.047Z,81.7
2018-11-20T21:15:05.097Z,81.5
2018-11-20T21:20:04.815Z,82.1
2018-11-20T21:25:04.895Z,81.5
2018-11-20T21:30:04.784Z,81.4
2018-11-20T21:35:04.935Z,81.6
2018-11-20T21:40:04.955Z,81.5
2018-11-20T21:45:04.927Z,81.2
2018-11-20T21:50:05.094Z,81.6
2018-11-20T21:55:04.913Z,81.5
2018-11-20T22:00:05.127Z,81.2
2018-11-20T22:05:05.059Z,81
2018-11-20T22:10:04.704Z,80.5
2018-11-20T22:15:04.935Z,80.9
2018-11-20T22:20:04.708Z,80.4
2018-11-20T22:25:05.006Z,80.3
2018-11-20T22:30:05.013Z,80.5
2018-11-20T22:35:04.744Z,80.5
2018-11-20T22:40:04.734Z,79.7
2018-11-20T22:45:04.603Z,79.3
2018-11-20T22:50:04.866Z,79.4
2018-11-20T22:55:04.713Z,79.2
2018-11-20T23:00:04.810Z,78.8
2018-11-20T23:05:04.784Z,78.8
2018-11-20T23:10:04.827Z,78.4
2018-11-20T23:15:04.797Z,78.2
2018-11-20T23:20:04.611Z,78
2018-11-20T23:25:04.793Z,78.6
2018-11-20T23:30:04.851Z,78.4
2018-11-20T23:35:04.793Z,78.5
2018-11-20T23:40:04.854Z,78.3
2018-11-20T23:45:04.578Z,78.8
2018-11-20T23:50:04.905Z,78.9
2018-11-20T23:55:04.701Z,79.7
